sensor_id;sensor_type;location;lat;lon;timestamp;pressure;altitude;pressure_sealevel;temperature;humidity
21730;BME280;11027;51.030;13.812;2023-08-24T00:00:41;100503.72;;;22.47;59.72
21730;BME280;11027;51.030;13.812;2023-08-24T00:03:06;100504.13;;;22.39;60.15
21730;BME280;11027;51.030;13.812;2023-08-24T00:05:35;100502.94;;;22.35;60.23
21730;BME280;11027;51.030;13.812;2023-08-24T00:08:04;100511.16;;;22.30;60.56
21730;BME280;11027;51.030;13.812;2023-08-24T00:10:30;100509.84;;;22.32;60.60
21730;BME280;11027;51.030;13.812;2023-08-24T00:12:55;100505.63;;;22.30;60.61
21730;BME280;11027;51.030;13.812;2023-08-24T00:15:21;100516.72;;;22.30;60.60
21730;BME280;11027;51.030;13.812;2023-08-24T00:17:46;100507.31;;;22.31;60.58
21730;BME280;11027;51.030;13.812;2023-08-24T00:20:11;100512.53;;;22.27;60.93
21730;BME280;11027;51.030;13.812;2023-08-24T00:22:40;100508.78;;;22.22;60.77
21730;BME280;11027;51.030;13.812;2023-08-24T00:25:09;100505.09;;;22.16;60.86
21730;BME280;11027;51.030;13.812;2023-08-24T00:27:34;100510.03;;;22.14;60.95
21730;BME280;11027;51.030;13.812;2023-08-24T00:30:02;100512.47;;;22.10;61.17
21730;BME280;11027;51.030;13.812;2023-08-24T00:32:28;100507.25;;;22.14;61.07
21730;BME280;11027;51.030;13.812;2023-08-24T00:34:53;100506.91;;;22.10;61.05
21730;BME280;11027;51.030;13.812;2023-08-24T00:37:18;100509.44;;;22.12;61.17
21730;BME280;11027;51.030;13.812;2023-08-24T00:39:43;100504.91;;;22.06;61.20
21730;BME280;11027;51.030;13.812;2023-08-24T00:42:09;100503.94;;;22.00;61.33
21730;BME280;11027;51.030;13.812;2023-08-24T00:44:39;100516.03;;;21.94;61.17
21730;BME280;11027;51.030;13.812;2023-08-24T00:47:05;100513.41;;;21.87;61.42
21730;BME280;11027;51.030;13.812;2023-08-24T00:49:31;100511.38;;;21.83;61.53
21730;BME280;11027;51.030;13.812;2023-08-24T00:51:56;100511.88;;;21.80;61.46
21730;BME280;11027;51.030;13.812;2023-08-24T00:54:22;100515.63;;;21.73;61.79
21730;BME280;11027;51.030;13.812;2023-08-24T00:56:47;100506.59;;;21.66;62.10
21730;BME280;11027;51.030;13.812;2023-08-24T00:59:13;100515.53;;;21.68;61.91
21730;BME280;11027;51.030;13.812;2023-08-24T01:01:39;100504.44;;;21.68;61.71
21730;BME280;11027;51.030;13.812;2023-08-24T01:04:06;100511.69;;;21.69;61.97
21730;BME280;11027;51.030;13.812;2023-08-24T01:06:32;100510.56;;;21.70;61.82
21730;BME280;11027;51.030;13.812;2023-08-24T01:08:57;100507.78;;;21.70;61.62
21730;BME280;11027;51.030;13.812;2023-08-24T01:14:30;100501.53;;;21.63;61.98
21730;BME280;11027;51.030;13.812;2023-08-24T01:16:58;100505.41;;;21.62;62.12
21730;BME280;11027;51.030;13.812;2023-08-24T01:19:43;100499.63;;;21.64;61.89
21730;BME280;11027;51.030;13.812;2023-08-24T01:25:10;100492.63;;;21.61;61.98
21730;BME280;11027;51.030;13.812;2023-08-24T01:27:37;100506.41;;;21.56;62.18
21730;BME280;11027;51.030;13.812;2023-08-24T01:30:04;100494.72;;;21.54;61.99
21730;BME280;11027;51.030;13.812;2023-08-24T01:32:31;100495.78;;;21.53;62.33
21730;BME280;11027;51.030;13.812;2023-08-24T01:34:57;100487.38;;;21.48;62.52
21730;BME280;11027;51.030;13.812;2023-08-24T01:37:23;100496.06;;;21.40;62.74
21730;BME280;11027;51.030;13.812;2023-08-24T01:39:56;100499.56;;;21.35;62.55
21730;BME280;11027;51.030;13.812;2023-08-24T01:42:27;100501.97;;;21.31;62.50
21730;BME280;11027;51.030;13.812;2023-08-24T01:44:56;100496.31;;;21.26;63.02
21730;BME280;11027;51.030;13.812;2023-08-24T01:47:24;100493.44;;;21.21;63.15
21730;BME280;11027;51.030;13.812;2023-08-24T01:49:50;100490.53;;;21.16;63.21
21730;BME280;11027;51.030;13.812;2023-08-24T01:52:17;100498.75;;;21.11;63.44
21730;BME280;11027;51.030;13.812;2023-08-24T01:54:43;100483.94;;;21.05;63.74
21730;BME280;11027;51.030;13.812;2023-08-24T01:57:10;100482.00;;;21.06;63.54
21730;BME280;11027;51.030;13.812;2023-08-24T01:59:35;100484.78;;;21.06;63.66
21730;BME280;11027;51.030;13.812;2023-08-24T02:02:00;100484.78;;;21.06;63.88
21730;BME280;11027;51.030;13.812;2023-08-24T02:04:26;100487.78;;;21.04;63.67
21730;BME280;11027;51.030;13.812;2023-08-24T02:06:51;100492.47;;;21.04;63.79
21730;BME280;11027;51.030;13.812;2023-08-24T02:09:16;100491.88;;;21.02;63.90
21730;BME280;11027;51.030;13.812;2023-08-24T02:11:41;100498.03;;;21.04;63.87
21730;BME280;11027;51.030;13.812;2023-08-24T02:14:06;100492.84;;;21.07;63.85
21730;BME280;11027;51.030;13.812;2023-08-24T02:16:32;100486.81;;;21.10;63.82
21730;BME280;11027;51.030;13.812;2023-08-24T02:18:58;100486.56;;;21.12;63.67
21730;BME280;11027;51.030;13.812;2023-08-24T02:21:23;100485.00;;;21.16;63.51
21730;BME280;11027;51.030;13.812;2023-08-24T02:23:48;100485.00;;;21.16;63.74
21730;BME280;11027;51.030;13.812;2023-08-24T02:26:14;100482.59;;;21.08;63.63
21730;BME280;11027;51.030;13.812;2023-08-24T02:28:39;100490.44;;;20.99;64.26
21730;BME280;11027;51.030;13.812;2023-08-24T02:31:05;100482.25;;;20.92;64.07
21730;BME280;11027;51.030;13.812;2023-08-24T02:33:31;100482.59;;;20.84;64.14
21730;BME280;11027;51.030;13.812;2023-08-24T02:35:56;100485.63;;;20.83;64.39
21730;BME280;11027;51.030;13.812;2023-08-24T02:38:23;100478.03;;;20.78;64.48
21730;BME280;11027;51.030;13.812;2023-08-24T02:40:48;100482.38;;;20.74;64.61
21730;BME280;11027;51.030;13.812;2023-08-24T02:43:13;100482.13;;;20.64;64.94
21730;BME280;11027;51.030;13.812;2023-08-24T02:45:39;100480.19;;;20.52;65.28
21730;BME280;11027;51.030;13.812;2023-08-24T02:48:04;100480.03;;;20.47;65.37
21730;BME280;11027;51.030;13.812;2023-08-24T02:50:30;100484.59;;;20.42;65.80
21730;BME280;11027;51.030;13.812;2023-08-24T02:52:55;100480.38;;;20.39;66.15
21730;BME280;11027;51.030;13.812;2023-08-24T02:55:23;100480.38;;;20.39;66.06
21730;BME280;11027;51.030;13.812;2023-08-24T02:57:49;100475.00;;;20.44;66.07
21730;BME280;11027;51.030;13.812;2023-08-24T03:00:14;100474.28;;;20.49;65.74
21730;BME280;11027;51.030;13.812;2023-08-24T03:02:39;100475.09;;;20.49;65.76
21730;BME280;11027;51.030;13.812;2023-08-24T03:05:05;100481.47;;;20.50;65.80
21730;BME280;11027;51.030;13.812;2023-08-24T03:07:30;100478.09;;;20.48;65.74
21730;BME280;11027;51.030;13.812;2023-08-24T03:09:55;100484.25;;;20.38;66.12
21730;BME280;11027;51.030;13.812;2023-08-24T03:12:21;100484.81;;;20.28;66.28
21730;BME280;11027;51.030;13.812;2023-08-24T03:14:46;100484.91;;;20.22;66.17
21730;BME280;11027;51.030;13.812;2023-08-24T03:17:11;100484.19;;;20.14;66.80
21730;BME280;11027;51.030;13.812;2023-08-24T03:19:37;100483.19;;;20.09;66.60
21730;BME280;11027;51.030;13.812;2023-08-24T03:22:02;100483.53;;;20.01;66.98
21730;BME280;11027;51.030;13.812;2023-08-24T03:24:27;100479.31;;;19.98;67.09
21730;BME280;11027;51.030;13.812;2023-08-24T03:26:52;100482.22;;;20.03;67.05
21730;BME280;11027;51.030;13.812;2023-08-24T03:29:18;100475.72;;;20.09;66.97
21730;BME280;11027;51.030;13.812;2023-08-24T03:31:43;100478.16;;;20.17;66.90
21730;BME280;11027;51.030;13.812;2023-08-24T03:34:08;100468.69;;;20.25;66.68
21730;BME280;11027;51.030;13.812;2023-08-24T03:36:33;100470.72;;;20.30;66.34
21730;BME280;11027;51.030;13.812;2023-08-24T03:38:59;100465.19;;;20.30;66.47
21730;BME280;11027;51.030;13.812;2023-08-24T03:41:24;100468.69;;;20.25;66.50
21730;BME280;11027;51.030;13.812;2023-08-24T03:43:49;100477.69;;;20.21;66.62
21730;BME280;11027;51.030;13.812;2023-08-24T03:46:15;100475.41;;;20.17;66.78
21730;BME280;11027;51.030;13.812;2023-08-24T03:48:40;100473.72;;;20.16;66.68
21730;BME280;11027;51.030;13.812;2023-08-24T03:51:05;100473.13;;;20.14;66.84
21730;BME280;11027;51.030;13.812;2023-08-24T03:53:30;100473.56;;;20.11;67.03
21730;BME280;11027;51.030;13.812;2023-08-24T03:55:57;100477.91;;;20.07;66.87
21730;BME280;11027;51.030;13.812;2023-08-24T03:58:22;100469.25;;;20.04;67.04
21730;BME280;11027;51.030;13.812;2023-08-24T04:00:49;100473.31;;;20.01;67.16
21730;BME280;11027;51.030;13.812;2023-08-24T04:03:14;100475.00;;;20.02;67.19
21730;BME280;11027;51.030;13.812;2023-08-24T04:05:39;100480.31;;;20.04;67.42
21730;BME280;11027;51.030;13.812;2023-08-24T04:08:05;100478.38;;;20.04;67.30
21730;BME280;11027;51.030;13.812;2023-08-24T04:10:30;100475.00;;;20.02;67.24
21730;BME280;11027;51.030;13.812;2023-08-24T04:12:55;100477.16;;;20.00;67.42
21730;BME280;11027;51.030;13.812;2023-08-24T04:15:21;100477.16;;;20.00;67.36
21730;BME280;11027;51.030;13.812;2023-08-24T04:17:47;100466.09;;;20.00;67.10
21730;BME280;11027;51.030;13.812;2023-08-24T04:20:12;100471.63;;;20.00;67.67
21730;BME280;11027;51.030;13.812;2023-08-24T04:22:38;100473.78;;;19.98;67.33
21730;BME280;11027;51.030;13.812;2023-08-24T04:25:03;100465.97;;;19.95;67.20
21730;BME280;11027;51.030;13.812;2023-08-24T04:27:29;100464.63;;;19.86;67.11
21730;BME280;11027;51.030;13.812;2023-08-24T04:29:55;100472.31;;;19.84;67.32
21730;BME280;11027;51.030;13.812;2023-08-24T04:32:21;100478.28;;;19.81;67.40
21730;BME280;11027;51.030;13.812;2023-08-24T04:34:46;100478.28;;;19.81;67.32
21730;BME280;11027;51.030;13.812;2023-08-24T04:37:12;100478.28;;;19.81;67.52
21730;BME280;11027;51.030;13.812;2023-08-24T04:39:37;100482.03;;;19.86;67.47
21730;BME280;11027;51.030;13.812;2023-08-24T04:42:02;100479.66;;;19.90;67.34
21730;BME280;11027;51.030;13.812;2023-08-24T04:44:28;100476.91;;;19.90;67.06
21730;BME280;11027;51.030;13.812;2023-08-24T04:46:53;100480.00;;;19.82;67.48
21730;BME280;11027;51.030;13.812;2023-08-24T04:49:18;100486.91;;;19.72;67.61
21730;BME280;11027;51.030;13.812;2023-08-24T04:51:43;100485.03;;;19.66;67.69
21730;BME280;11027;51.030;13.812;2023-08-24T04:54:09;100485.16;;;19.59;67.82
21730;BME280;11027;51.030;13.812;2023-08-24T04:56:34;100485.81;;;19.55;68.34
21730;BME280;11027;51.030;13.812;2023-08-24T04:59:00;100476.56;;;19.49;68.46
21730;BME280;11027;51.030;13.812;2023-08-24T05:01:27;100484.25;;;19.47;68.68
21730;BME280;11027;51.030;13.812;2023-08-24T05:03:53;100482.94;;;19.50;68.67
21730;BME280;11027;51.030;13.812;2023-08-24T05:06:19;100485.81;;;19.55;68.51
21730;BME280;11027;51.030;13.812;2023-08-24T05:08:44;100493.97;;;19.50;68.80
21730;BME280;11027;51.030;13.812;2023-08-24T05:11:13;100492.75;;;19.46;68.89
21730;BME280;11027;51.030;13.812;2023-08-24T05:13:40;100485.53;;;19.45;69.11
21730;BME280;11027;51.030;13.812;2023-08-24T05:16:05;100491.06;;;19.45;69.12
21730;BME280;11027;51.030;13.812;2023-08-24T05:18:31;100488.44;;;19.50;69.03
21730;BME280;11027;51.030;13.812;2023-08-24T05:20:56;100482.75;;;19.45;69.06
21730;BME280;11027;51.030;13.812;2023-08-24T05:23:21;100492.16;;;19.44;68.81
21730;BME280;11027;51.030;13.812;2023-08-24T05:25:46;100485.53;;;19.45;69.12
21730;BME280;11027;51.030;13.812;2023-08-24T05:28:12;100481.69;;;19.46;68.74
21730;BME280;11027;51.030;13.812;2023-08-24T05:30:37;100491.66;;;19.47;68.95
21730;BME280;11027;51.030;13.812;2023-08-24T05:33:02;100492.75;;;19.46;69.16
21730;BME280;11027;51.030;13.812;2023-08-24T05:35:28;100494.91;;;19.44;69.05
21730;BME280;11027;51.030;13.812;2023-08-24T05:37:53;100489.38;;;19.44;69.42
21730;BME280;11027;51.030;13.812;2023-08-24T05:40:19;100492.75;;;19.46;69.24
21730;BME280;11027;51.030;13.812;2023-08-24T05:42:44;100478.72;;;19.47;69.06
21730;BME280;11027;51.030;13.812;2023-08-24T05:45:09;100481.22;;;19.49;69.13
21730;BME280;11027;51.030;13.812;2023-08-24T05:47:34;100485.91;;;19.48;68.94
21730;BME280;11027;51.030;13.812;2023-08-24T05:50:00;100485.06;;;19.48;69.25
21730;BME280;11027;51.030;13.812;2023-08-24T05:52:25;100474.03;;;19.48;69.13
21730;BME280;11027;51.030;13.812;2023-08-24T05:54:50;100479.56;;;19.48;68.90
21730;BME280;11027;51.030;13.812;2023-08-24T05:57:15;100479.16;;;19.44;69.06
21730;BME280;11027;51.030;13.812;2023-08-24T05:59:41;100474.47;;;19.45;69.35
21730;BME280;11027;51.030;13.812;2023-08-24T06:02:06;100477.00;;;19.46;69.23
21730;BME280;11027;51.030;13.812;2023-08-24T06:04:31;100476.56;;;19.49;69.41
21730;BME280;11027;51.030;13.812;2023-08-24T06:06:57;100479.69;;;19.53;69.18
21730;BME280;11027;51.030;13.812;2023-08-24T06:09:22;100491.34;;;19.55;69.35
21730;BME280;11027;51.030;13.812;2023-08-24T06:11:47;100480.69;;;19.58;69.10
21730;BME280;11027;51.030;13.812;2023-08-24T06:14:12;100475.53;;;19.62;69.28
21730;BME280;11027;51.030;13.812;2023-08-24T06:16:38;100471.22;;;19.66;68.96
21730;BME280;11027;51.030;13.812;2023-08-24T06:19:03;100464.81;;;19.72;68.82
21730;BME280;11027;51.030;13.812;2023-08-24T06:21:28;100468.94;;;19.82;68.82
21730;BME280;11027;51.030;13.812;2023-08-24T06:23:53;100465.69;;;19.85;68.40
21730;BME280;11027;51.030;13.812;2023-08-24T06:26:19;100460.16;;;19.85;68.10
21730;BME280;11027;51.030;13.812;2023-08-24T06:28:44;100457.38;;;19.85;68.25
21730;BME280;11027;51.030;13.812;2023-08-24T06:31:09;100460.75;;;19.87;67.83
21730;BME280;11027;51.030;13.812;2023-08-24T06:33:35;100460.31;;;19.90;67.78
21730;BME280;11027;51.030;13.812;2023-08-24T06:36:02;100461.97;;;19.91;68.07
21730;BME280;11027;51.030;13.812;2023-08-24T06:38:27;100455.50;;;19.97;67.98
21730;BME280;11027;51.030;13.812;2023-08-24T06:40:54;100456.50;;;20.03;67.71
21730;BME280;11027;51.030;13.812;2023-08-24T06:43:19;100462.41;;;20.06;67.82
21730;BME280;11027;51.030;13.812;2023-08-24T06:45:44;100465.16;;;20.06;67.89
21730;BME280;11027;51.030;13.812;2023-08-24T06:48:10;100455.78;;;20.07;67.76
21730;BME280;11027;51.030;13.812;2023-08-24T06:50:35;100455.31;;;20.10;67.78
21730;BME280;11027;51.030;13.812;2023-08-24T06:53:02;100454.81;;;20.13;67.67
21730;BME280;11027;51.030;13.812;2023-08-24T06:55:28;100459.41;;;20.19;67.69
21730;BME280;11027;51.030;13.812;2023-08-24T06:57:54;100454.25;;;20.23;67.26
21730;BME280;11027;51.030;13.812;2023-08-24T07:00:19;100458.44;;;20.26;67.15
21730;BME280;11027;51.030;13.812;2023-08-24T07:02:49;100457.38;;;20.27;67.03
21730;BME280;11027;51.030;13.812;2023-08-24T07:05:15;100460.88;;;20.34;67.18
21730;BME280;11027;51.030;13.812;2023-08-24T07:07:44;100457.41;;;20.38;67.09
21730;BME280;11027;51.030;13.812;2023-08-24T07:10:10;100463.94;;;20.44;66.81
21730;BME280;11027;51.030;13.812;2023-08-24T07:12:35;100453.47;;;20.46;67.00
21730;BME280;11027;51.030;13.812;2023-08-24T07:15:01;100451.91;;;20.50;66.89
21730;BME280;11027;51.030;13.812;2023-08-24T07:17:26;100462.00;;;20.56;66.75
21730;BME280;11027;51.030;13.812;2023-08-24T07:19:51;100456.16;;;20.65;66.66
21730;BME280;11027;51.030;13.812;2023-08-24T07:22:17;100455.19;;;20.71;66.60
21730;BME280;11027;51.030;13.812;2023-08-24T07:24:42;100441.94;;;20.73;66.74
21730;BME280;11027;51.030;13.812;2023-08-24T07:27:08;100434.25;;;20.75;66.50
21730;BME280;11027;51.030;13.812;2023-08-24T07:29:34;100443.97;;;20.77;66.42
21730;BME280;11027;51.030;13.812;2023-08-24T07:31:59;100432.78;;;20.84;66.60
21730;BME280;11027;51.030;13.812;2023-08-24T07:34:24;100440.09;;;20.90;66.68
21730;BME280;11027;51.030;13.812;2023-08-24T07:36:50;100439.13;;;20.96;66.33
21730;BME280;11027;51.030;13.812;2023-08-24T07:39:15;100440.34;;;21.01;66.48
21730;BME280;11027;51.030;13.812;2023-08-24T07:41:44;100437.69;;;21.06;66.08
21730;BME280;11027;51.030;13.812;2023-08-24T07:44:09;100427.81;;;21.10;66.34
21730;BME280;11027;51.030;13.812;2023-08-24T07:46:35;100429.59;;;21.16;66.16
21730;BME280;11027;51.030;13.812;2023-08-24T07:49:00;100439.69;;;21.22;66.06
21730;BME280;11027;51.030;13.812;2023-08-24T07:51:25;100430.41;;;21.28;66.28
21730;BME280;11027;51.030;13.812;2023-08-24T07:53:51;100434.38;;;21.32;65.97
21730;BME280;11027;51.030;13.812;2023-08-24T07:56:18;100440.28;;;21.36;65.87
21730;BME280;11027;51.030;13.812;2023-08-24T07:58:44;100435.09;;;21.40;65.45
21730;BME280;11027;51.030;13.812;2023-08-24T08:01:09;100439.28;;;21.42;65.21
21730;BME280;11027;51.030;13.812;2023-08-24T08:03:35;100434.97;;;21.46;65.25
21730;BME280;11027;51.030;13.812;2023-08-24T08:06:01;100436.97;;;21.51;64.92
21730;BME280;11027;51.030;13.812;2023-08-24T08:08:26;100427.09;;;21.55;64.99
21730;BME280;11027;51.030;13.812;2023-08-24T08:10:58;100428.88;;;21.61;64.84
21730;BME280;11027;51.030;13.812;2023-08-24T08:13:28;100425.97;;;21.68;64.69
21730;BME280;11027;51.030;13.812;2023-08-24T08:15:53;100430.75;;;21.72;64.61
21730;BME280;11027;51.030;13.812;2023-08-24T08:18:19;100434.25;;;21.80;64.62
21730;BME280;11027;51.030;13.812;2023-08-24T08:20:45;100440.38;;;21.82;64.46
21730;BME280;11027;51.030;13.812;2023-08-24T08:23:10;100427.69;;;21.86;64.23
21730;BME280;11027;51.030;13.812;2023-08-24T08:25:35;100422.47;;;21.89;64.28
21730;BME280;11027;51.030;13.812;2023-08-24T08:28:00;100429.19;;;21.93;64.25
21730;BME280;11027;51.030;13.812;2023-08-24T08:30:26;100419.28;;;21.97;64.07
21730;BME280;11027;51.030;13.812;2023-08-24T08:32:51;100418.78;;;22.01;63.95
21730;BME280;11027;51.030;13.812;2023-08-24T08:35:18;100413.59;;;22.04;63.76
21730;BME280;11027;51.030;13.812;2023-08-24T08:37:44;100423.34;;;22.07;63.52
21730;BME280;11027;51.030;13.812;2023-08-24T08:40:10;100419.81;;;22.11;63.20
21730;BME280;11027;51.030;13.812;2023-08-24T08:42:36;100419.66;;;22.18;63.19
21730;BME280;11027;51.030;13.812;2023-08-24T08:45:02;100416.13;;;22.23;63.04
21730;BME280;11027;51.030;13.812;2023-08-24T08:47:29;100414.03;;;22.30;62.73
21730;BME280;11027;51.030;13.812;2023-08-24T08:49:55;100410.78;;;22.33;62.73
21730;BME280;11027;51.030;13.812;2023-08-24T08:52:20;100404.72;;;22.36;62.52
21730;BME280;11027;51.030;13.812;2023-08-24T08:54:46;100401.53;;;22.44;62.38
21730;BME280;11027;51.030;13.812;2023-08-24T08:57:11;100399.16;;;22.53;62.55
21730;BME280;11027;51.030;13.812;2023-08-24T08:59:38;100401.16;;;22.57;61.69
21730;BME280;11027;51.030;13.812;2023-08-24T09:02:04;100400.13;;;22.64;60.74
21730;BME280;11027;51.030;13.812;2023-08-24T09:04:33;100393.56;;;22.70;59.51
21730;BME280;11027;51.030;13.812;2023-08-24T09:07:01;100387.84;;;22.76;58.46
21730;BME280;11027;51.030;13.812;2023-08-24T09:09:29;100385.13;;;22.82;58.07
21730;BME280;11027;51.030;13.812;2023-08-24T09:11:55;100384.63;;;22.85;57.80
21730;BME280;11027;51.030;13.812;2023-08-24T09:14:20;100369.38;;;22.87;57.59
21730;BME280;11027;51.030;13.812;2023-08-24T09:16:45;100361.38;;;22.91;57.43
21730;BME280;11027;51.030;13.812;2023-08-24T09:19:11;100361.16;;;22.97;57.20
21730;BME280;11027;51.030;13.812;2023-08-24T09:21:38;100360.41;;;23.02;57.49
21730;BME280;11027;51.030;13.812;2023-08-24T09:24:06;100359.97;;;23.10;56.97
21730;BME280;11027;51.030;13.812;2023-08-24T09:26:32;100357.00;;;23.17;56.57
21730;BME280;11027;51.030;13.812;2023-08-24T09:28:59;100354.28;;;23.22;56.15
21730;BME280;11027;51.030;13.812;2023-08-24T09:31:35;100339.31;;;23.28;55.62
21730;BME280;11027;51.030;13.812;2023-08-24T09:34:02;100342.19;;;23.33;55.28
21730;BME280;11027;51.030;13.812;2023-08-24T09:36:34;100343.34;;;23.38;54.77
21730;BME280;11027;51.030;13.812;2023-08-24T09:39:00;100338.69;;;23.43;54.18
21730;BME280;11027;51.030;13.812;2023-08-24T09:41:45;100339.28;;;23.50;53.68
21730;BME280;11027;51.030;13.812;2023-08-24T09:44:10;100337.97;;;23.58;53.26
21730;BME280;11027;51.030;13.812;2023-08-24T09:46:37;100333.34;;;23.69;52.60
21730;BME280;11027;51.030;13.812;2023-08-24T09:49:05;100327.06;;;23.79;52.04
21730;BME280;11027;51.030;13.812;2023-08-24T09:51:32;100327.72;;;23.86;51.75
21730;BME280;11027;51.030;13.812;2023-08-24T09:53:58;100317.22;;;23.98;51.39
21730;BME280;11027;51.030;13.812;2023-08-24T09:56:28;100311.19;;;24.11;51.24
21730;BME280;11027;51.030;13.812;2023-08-24T09:58:54;100309.91;;;24.24;50.77
21730;BME280;11027;51.030;13.812;2023-08-24T10:01:20;100295.50;;;24.38;49.83
21730;BME280;11027;51.030;13.812;2023-08-24T10:03:49;100278.84;;;24.48;49.57
21730;BME280;11027;51.030;13.812;2023-08-24T10:06:19;100270.88;;;24.57;49.49
21730;BME280;11027;51.030;13.812;2023-08-24T10:08:47;100282.06;;;24.67;49.16
21730;BME280;11027;51.030;13.812;2023-08-24T10:11:20;100282.63;;;24.74;48.73
21730;BME280;11027;51.030;13.812;2023-08-24T10:14:16;100287.09;;;24.80;48.41
21730;BME280;11027;51.030;13.812;2023-08-24T10:16:44;100291.59;;;24.86;48.80
21730;BME280;11027;51.030;13.812;2023-08-24T10:19:13;100288.84;;;24.91;48.55
21730;BME280;11027;51.030;13.812;2023-08-24T10:21:39;100286.09;;;24.97;48.42
21730;BME280;11027;51.030;13.812;2023-08-24T10:24:05;100296.13;;;25.03;48.41
21730;BME280;11027;51.030;13.812;2023-08-24T10:26:32;100286.09;;;25.07;48.29
21730;BME280;11027;51.030;13.812;2023-08-24T10:28:58;100288.06;;;25.11;48.00
21730;BME280;11027;51.030;13.812;2023-08-24T10:31:24;100288.34;;;25.15;47.51
21730;BME280;11027;51.030;13.812;2023-08-24T10:33:50;100293.38;;;25.18;47.40
21730;BME280;11027;51.030;13.812;2023-08-24T10:36:16;100280.06;;;25.25;47.52
21730;BME280;11027;51.030;13.812;2023-08-24T10:38:43;100274.19;;;25.32;46.91
21730;BME280;11027;51.030;13.812;2023-08-24T10:41:09;100268.09;;;25.35;46.54
21730;BME280;11027;51.030;13.812;2023-08-24T10:43:36;100278.41;;;25.40;46.80
21730;BME280;11027;51.030;13.812;2023-08-24T10:46:02;100270.59;;;25.42;46.77
21730;BME280;11027;51.030;13.812;2023-08-24T10:53:46;100262.22;;;25.57;46.79
21730;BME280;11027;51.030;13.812;2023-08-24T10:56:16;100254.97;;;25.66;46.71
21730;BME280;11027;51.030;13.812;2023-08-24T10:58:43;100251.63;;;25.74;46.53
21730;BME280;11027;51.030;13.812;2023-08-24T11:03:48;100245.19;;;25.89;46.42
21730;BME280;11027;51.030;13.812;2023-08-24T11:06:21;100249.97;;;25.94;46.61
21730;BME280;11027;51.030;13.812;2023-08-24T11:08:47;100253.31;;;25.96;46.77
21730;BME280;11027;51.030;13.812;2023-08-24T11:11:21;100244.94;;;25.96;46.63
21730;BME280;11027;51.030;13.812;2023-08-24T11:14:18;100234.06;;;25.94;46.57
21730;BME280;11027;51.030;13.812;2023-08-24T11:16:57;100244.41;;;25.94;46.58
21730;BME280;11027;51.030;13.812;2023-08-24T11:19:23;100244.41;;;25.94;46.34
21730;BME280;11027;51.030;13.812;2023-08-24T11:21:48;100244.94;;;25.96;46.25
21730;BME280;11027;51.030;13.812;2023-08-24T11:24:13;100240.47;;;25.95;45.71
21730;BME280;11027;51.030;13.812;2023-08-24T11:26:41;100224.84;;;25.99;45.90
21730;BME280;11027;51.030;13.812;2023-08-24T11:29:10;100218.13;;;26.05;46.05
21730;BME280;11027;51.030;13.812;2023-08-24T11:31:36;100223.16;;;26.08;46.25
21730;BME280;11027;51.030;13.812;2023-08-24T11:34:02;100218.69;;;26.12;46.21
21730;BME280;11027;51.030;13.812;2023-08-24T11:36:28;100212.50;;;26.15;46.17
21730;BME280;11027;51.030;13.812;2023-08-24T11:38:56;100208.03;;;26.20;46.28
21730;BME280;11027;51.030;13.812;2023-08-24T11:41:22;100206.94;;;26.26;46.15
21730;BME280;11027;51.030;13.812;2023-08-24T11:43:48;100195.16;;;26.34;46.01
21730;BME280;11027;51.030;13.812;2023-08-24T11:46:17;100186.16;;;26.47;46.03
21730;BME280;11027;51.030;13.812;2023-08-24T11:48:43;100178.31;;;26.60;45.79
21730;BME280;11027;51.030;13.812;2023-08-24T11:51:10;100164.31;;;26.65;45.61
21730;BME280;11027;51.030;13.812;2023-08-24T11:53:39;100146.97;;;26.68;45.12
21730;BME280;11027;51.030;13.812;2023-08-24T11:56:05;100132.38;;;26.76;45.22
21730;BME280;11027;51.030;13.812;2023-08-24T11:58:39;100118.97;;;26.78;45.18
21730;BME280;11027;51.030;13.812;2023-08-24T12:01:09;100110.88;;;26.77;44.48
21730;BME280;11027;51.030;13.812;2023-08-24T12:03:35;100119.56;;;26.75;44.72
21730;BME280;11027;51.030;13.812;2023-08-24T12:06:01;100107.28;;;26.71;45.08
21730;BME280;11027;51.030;13.812;2023-08-24T12:08:29;100111.19;;;26.70;45.48
21730;BME280;11027;51.030;13.812;2023-08-24T12:10:55;100100.03;;;26.70;45.67
21730;BME280;11027;51.030;13.812;2023-08-24T12:13:21;100096.69;;;26.68;45.54
21730;BME280;11027;51.030;13.812;2023-08-24T12:15:47;100092.50;;;26.65;45.85
21730;BME280;11027;51.030;13.812;2023-08-24T12:18:15;100089.16;;;26.63;45.85
21730;BME280;11027;51.030;13.812;2023-08-24T12:20:41;100081.06;;;26.62;46.00
21730;BME280;11027;51.030;13.812;2023-08-24T12:23:07;100086.66;;;26.62;46.04
21730;BME280;11027;51.030;13.812;2023-08-24T12:25:36;100087.53;;;26.62;46.56
21730;BME280;11027;51.030;13.812;2023-08-24T12:28:14;100097.28;;;26.65;46.25
21730;BME280;11027;51.030;13.812;2023-08-24T12:30:44;100107.84;;;26.68;46.42
21730;BME280;11027;51.030;13.812;2023-08-24T12:33:20;100108.38;;;26.75;46.21
21730;BME280;11027;51.030;13.812;2023-08-24T12:35:46;100115.31;;;26.83;46.45
21730;BME280;11027;51.030;13.812;2023-08-24T12:38:11;100118.06;;;26.88;46.12
21730;BME280;11027;51.030;13.812;2023-08-24T12:40:37;100121.09;;;26.91;46.34
21730;BME280;11027;51.030;13.812;2023-08-24T12:43:02;100128.66;;;26.91;46.67
21730;BME280;11027;51.030;13.812;2023-08-24T12:45:28;100131.75;;;26.89;46.32
21730;BME280;11027;51.030;13.812;2023-08-24T12:47:54;100122.81;;;26.87;46.50
21730;BME280;11027;51.030;13.812;2023-08-24T12:50:19;100104.91;;;26.88;46.61